Time;durP1;ratioP1;P1;durP2;ratioP2;P2;SDS_P1;SDS_P2;PMS_P1;PMS_P2;Temp;Humidity;BMP_temperature;BMP_pressure;BME280_temperature;BME280_humidity;BME280_pressure;Samples;Min_cycle;Max_cycle;Signal;HPM_P1;HPM_P2
2022/08/03 00:02:00;;;;;;;3.83;2.10;;;;;;;;;;4880268;29;20028;-80
2022/08/03 00:04:26;;;;;;;3.20;2.38;;;;;;;;;;4879934;29;20072;-78
2022/08/03 00:06:52;;;;;;;2.97;2.35;;;;;;;;;;4894216;29;20530;-78
2022/08/03 00:09:18;;;;;;;2.78;2.17;;;;;;;;;;4894289;29;20033;-79
2022/08/03 00:11:45;;;;;;;3.03;2.33;;;;;;;;;;4894178;29;20474;-80
2022/08/03 00:14:11;;;;;;;3.80;2.38;;;;;;;;;;4894151;29;20031;-78
2022/08/03 00:16:38;;;;;;;3.75;2.25;;;;;;;;;;4894132;29;20044;-78
2022/08/03 00:19:04;;;;;;;2.38;2.17;;;;;;;;;;4894396;29;20112;-79
2022/08/03 00:21:30;;;;;;;3.22;2.42;;;;;;;;;;4893913;29;20065;-79
2022/08/03 00:23:57;;;;;;;4.55;2.50;;;;;;;;;;4894209;29;20068;-79
2022/08/03 00:26:23;;;;;;;3.17;2.05;;;;;;;;;;4894103;29;20036;-79
2022/08/03 00:28:49;;;;;;;3.70;2.33;;;;;;;;;;4894093;29;20039;-79
2022/08/03 00:31:15;;;;;;;2.72;2.30;;;;;;;;;;4894072;29;20037;-80
2022/08/03 00:33:42;;;;;;;2.58;2.20;;;;;;;;;;4880210;29;20029;-79
2022/08/03 00:36:08;;;;;;;3.85;2.20;;;;;;;;;;4894184;29;20055;-79
2022/08/03 00:38:34;;;;;;;2.58;2.17;;;;;;;;;;4893963;29;20120;-79
2022/08/03 00:41:00;;;;;;;3.47;2.63;;;;;;;;;;4894137;29;20076;-79
2022/08/03 00:43:26;;;;;;;3.33;2.25;;;;;;;;;;4894142;29;20044;-79
2022/08/03 00:45:53;;;;;;;3.30;2.38;;;;;;;;;;4894057;29;20025;-80
2022/08/03 00:48:20;;;;;;;3.80;2.90;;;;;;;;;;4893384;29;20078;-79
2022/08/03 00:50:46;;;;;;;2.67;2.45;;;;;;;;;;4894164;29;20112;-79
2022/08/03 00:53:13;;;;;;;3.00;2.70;;;;;;;;;;4879676;29;20122;-80
2022/08/03 00:55:43;;;;;;;3.30;2.90;;;;;;;;;;4893942;29;20116;-80
2022/08/03 00:58:10;;;;;;;3.00;2.40;;;;;;;;;;4880124;29;20029;-80
2022/08/03 01:00:38;;;;;;;4.32;2.60;;;;;;;;;;4893829;29;20123;-80
2022/08/03 01:03:08;;;;;;;3.05;2.75;;;;;;;;;;4882908;29;20040;-80
2022/08/03 01:05:52;;;;;;;3.03;2.72;;;;;;;;;;4897578;29;20071;-79
2022/08/03 01:08:36;;;;;;;3.33;2.60;;;;;;;;;;4883920;29;20088;-79
2022/08/03 01:11:18;;;;;;;3.25;2.50;;;;;;;;;;4883662;29;20036;-79
2022/08/03 01:13:46;;;;;;;4.68;2.80;;;;;;;;;;4883031;29;20085;-79
2022/08/03 01:16:15;;;;;;;3.33;2.72;;;;;;;;;;4882977;29;20047;-79
2022/08/03 01:18:46;;;;;;;4.35;3.00;;;;;;;;;;4882896;29;20117;-79
2022/08/03 01:21:16;;;;;;;3.92;2.95;;;;;;;;;;4897102;29;20457;-81
2022/08/03 01:24:03;;;;;;;4.10;2.90;;;;;;;;;;4882991;29;20498;-79
2022/08/03 01:26:53;;;;;;;3.03;2.60;;;;;;;;;;4897349;29;20033;-80
2022/08/03 01:29:31;;;;;;;4.13;2.63;;;;;;;;;;4897181;29;20021;-80
2022/08/03 01:32:00;;;;;;;3.40;2.80;;;;;;;;;;4897008;29;20029;-80
2022/08/03 01:34:29;;;;;;;3.42;3.13;;;;;;;;;;4896774;29;20041;-79
2022/08/03 01:36:57;;;;;;;3.33;2.75;;;;;;;;;;4896769;29;20062;-80
2022/08/03 01:39:26;;;;;;;3.30;2.70;;;;;;;;;;4896727;29;20053;-79
2022/08/03 01:42:06;;;;;;;4.57;3.25;;;;;;;;;;4896767;29;20475;-79
2022/08/03 01:44:35;;;;;;;3.30;3.00;;;;;;;;;;4896864;29;20043;-79
2022/08/03 01:47:02;;;;;;;3.33;2.97;;;;;;;;;;4896703;29;20033;-79
2022/08/03 01:49:29;;;;;;;3.50;3.05;;;;;;;;;;4897476;29;20033;-79
2022/08/03 01:51:56;;;;;;;4.40;3.30;;;;;;;;;;4882423;29;20041;-80
2022/08/03 01:54:23;;;;;;;3.97;2.90;;;;;;;;;;4896630;29;20093;-80
2022/08/03 01:56:51;;;;;;;3.78;3.33;;;;;;;;;;4882224;29;20033;-80
2022/08/03 01:59:18;;;;;;;4.60;3.00;;;;;;;;;;4896509;29;20033;-80
2022/08/03 02:01:46;;;;;;;3.20;2.90;;;;;;;;;;4896502;29;20032;-80
2022/08/03 02:04:14;;;;;;;5.13;3.10;;;;;;;;;;4896510;29;20060;-80
2022/08/03 02:06:41;;;;;;;4.43;3.15;;;;;;;;;;4882164;29;20080;-79
2022/08/03 02:09:07;;;;;;;3.47;2.95;;;;;;;;;;4896483;29;20111;-80
2022/08/03 02:11:35;;;;;;;4.80;3.47;;;;;;;;;;4882643;29;20021;-79
2022/08/03 02:14:04;;;;;;;3.92;3.10;;;;;;;;;;4895701;29;20540;-79
2022/08/03 02:16:30;;;;;;;3.42;3.13;;;;;;;;;;4896322;29;20239;-79
2022/08/03 02:18:57;;;;;;;3.58;3.20;;;;;;;;;;4896468;29;20033;-80
2022/08/03 02:21:25;;;;;;;4.70;3.25;;;;;;;;;;4896101;29;20418;-79
2022/08/03 02:23:51;;;;;;;4.10;3.28;;;;;;;;;;4881796;29;20044;-79
2022/08/03 02:26:19;;;;;;;3.78;3.17;;;;;;;;;;4882324;29;20033;-79
2022/08/03 02:28:48;;;;;;;4.05;3.50;;;;;;;;;;4896021;29;20031;-79
2022/08/03 02:31:24;;;;;;;3.75;3.40;;;;;;;;;;4881748;29;20386;-79
2022/08/03 02:33:52;;;;;;;4.20;3.80;;;;;;;;;;4895816;29;20025;-80
2022/08/03 02:36:21;;;;;;;4.50;3.40;;;;;;;;;;4895825;29;20029;-78
2022/08/03 02:38:49;;;;;;;4.63;3.55;;;;;;;;;;4895592;29;20111;-79
2022/08/03 02:41:17;;;;;;;4.22;3.70;;;;;;;;;;4881255;29;20406;-79
2022/08/03 02:43:45;;;;;;;4.05;3.65;;;;;;;;;;4895649;29;20025;-79
2022/08/03 02:46:13;;;;;;;4.90;3.63;;;;;;;;;;4895636;29;20056;-79
2022/08/03 02:48:41;;;;;;;4.13;3.65;;;;;;;;;;4881328;29;20115;-79
2022/08/03 02:51:07;;;;;;;4.53;3.50;;;;;;;;;;4895661;29;20029;-79
2022/08/03 02:53:34;;;;;;;4.75;3.63;;;;;;;;;;4881742;29;20080;-79
2022/08/03 02:56:02;;;;;;;4.35;3.30;;;;;;;;;;4881197;29;20041;-79
2022/08/03 02:58:28;;;;;;;5.90;3.38;;;;;;;;;;4895515;29;20052;-79
2022/08/03 03:00:55;;;;;;;4.97;3.38;;;;;;;;;;4881077;29;20033;-79
2022/08/03 03:03:22;;;;;;;4.30;3.90;;;;;;;;;;4881619;29;20064;-80
2022/08/03 03:05:49;;;;;;;4.72;3.90;;;;;;;;;;4895375;29;20025;-81
2022/08/03 03:08:17;;;;;;;4.13;3.63;;;;;;;;;;4895429;29;20029;-79
2022/08/03 03:10:44;;;;;;;4.32;3.70;;;;;;;;;;4895215;29;20043;-79
2022/08/03 03:13:10;;;;;;;6.70;3.80;;;;;;;;;;4895362;29;20032;-79
2022/08/03 03:15:38;;;;;;;4.65;3.60;;;;;;;;;;4895244;29;20083;-79
2022/08/03 03:18:05;;;;;;;6.78;3.60;;;;;;;;;;4895333;29;20475;-79
2022/08/03 03:20:34;;;;;;;5.53;3.78;;;;;;;;;;4894963;29;20057;-80
2022/08/03 03:23:01;;;;;;;4.82;3.85;;;;;;;;;;4880979;29;20029;-79
2022/08/03 03:25:36;;;;;;;4.20;3.80;;;;;;;;;;4894270;29;20033;-79
2022/08/03 03:28:03;;;;;;;4.13;3.40;;;;;;;;;;4895298;29;20382;-80
2022/08/03 03:30:29;;;;;;;3.97;3.58;;;;;;;;;;4895113;29;20033;-80
2022/08/03 03:32:56;;;;;;;4.40;3.97;;;;;;;;;;4880361;29;20064;-80
2022/08/03 03:35:23;;;;;;;6.45;4.00;;;;;;;;;;4894581;29;20082;-80
2022/08/03 03:37:49;;;;;;;4.47;3.90;;;;;;;;;;4894852;29;20382;-80
2022/08/03 03:40:15;;;;;;;4.53;4.00;;;;;;;;;;4894706;29;20037;-79
2022/08/03 03:42:42;;;;;;;4.25;3.78;;;;;;;;;;4894374;29;20029;-79
2022/08/03 03:45:08;;;;;;;4.35;3.90;;;;;;;;;;4880202;29;20371;-81
2022/08/03 03:47:35;;;;;;;4.72;3.92;;;;;;;;;;4894542;29;20506;-79
2022/08/03 03:50:02;;;;;;;5.90;4.07;;;;;;;;;;4880112;29;20033;-79
2022/08/03 03:52:28;;;;;;;5.53;4.10;;;;;;;;;;4880722;29;20086;-78
2022/08/03 03:54:55;;;;;;;6.13;4.03;;;;;;;;;;4893858;29;20124;-79
2022/08/03 03:57:21;;;;;;;5.03;4.20;;;;;;;;;;4880586;29;20060;-79
2022/08/03 03:59:47;;;;;;;5.60;4.25;;;;;;;;;;4894373;29;20029;-79
2022/08/03 04:02:14;;;;;;;4.60;3.95;;;;;;;;;;4894259;29;20060;-79
2022/08/03 04:13:00;;;;;;;4.78;3.45;;;;;;;;;;4880545;29;20053;-79
2022/08/03 04:15:27;;;;;;;6.47;4.10;;;;;;;;;;4894198;29;20086;-79
2022/08/03 04:17:55;;;;;;;4.65;3.83;;;;;;;;;;4880107;29;20094;-79
2022/08/03 04:20:22;;;;;;;7.75;3.80;;;;;;;;;;4893977;29;20101;-79
2022/08/03 04:22:50;;;;;;;6.03;3.97;;;;;;;;;;4880305;29;20037;-79
2022/08/03 04:25:18;;;;;;;5.60;4.10;;;;;;;;;;4894161;29;20132;-79
2022/08/03 04:27:45;;;;;;;4.82;3.50;;;;;;;;;;4879845;29;20032;-78
2022/08/03 04:30:14;;;;;;;5.03;3.80;;;;;;;;;;4894163;29;20043;-79
2022/08/03 04:32:41;;;;;;;4.97;3.72;;;;;;;;;;4880419;29;20463;-79
2022/08/03 04:35:07;;;;;;;4.97;3.90;;;;;;;;;;4894444;29;20032;-80
2022/08/03 04:37:42;;;;;;;4.28;3.40;;;;;;;;;;4896670;29;20123;-79
2022/08/03 04:40:10;;;;;;;6.05;3.70;;;;;;;;;;4898048;29;20029;-79
2022/08/03 04:42:37;;;;;;;5.75;3.80;;;;;;;;;;4898131;29;20029;-79
2022/08/03 04:45:04;;;;;;;5.60;3.80;;;;;;;;;;4897915;29;20097;-79
2022/08/03 04:47:32;;;;;;;6.45;4.00;;;;;;;;;;4883515;29;20025;-79
2022/08/03 04:50:01;;;;;;;5.43;3.88;;;;;;;;;;4897819;29;20040;-79
2022/08/03 04:52:27;;;;;;;5.10;3.55;;;;;;;;;;4897860;29;20029;-79
2022/08/03 04:54:53;;;;;;;4.95;3.58;;;;;;;;;;4897903;29;20120;-79
2022/08/03 04:57:20;;;;;;;5.10;3.80;;;;;;;;;;4897581;29;20074;-80
2022/08/03 04:59:48;;;;;;;5.10;3.97;;;;;;;;;;4883190;29;20112;-79
2022/08/03 05:02:14;;;;;;;16.67;4.63;;;;;;;;;;4897699;29;20366;-79
2022/08/03 05:04:45;;;;;;;21.42;4.63;;;;;;;;;;4883212;29;20041;-78
2022/08/03 05:07:14;;;;;;;11.15;3.72;;;;;;;;;;4897501;29;20033;-78
2022/08/03 05:09:40;;;;;;;5.93;3.15;;;;;;;;;;4897510;29;20033;-78
2022/08/03 05:12:07;;;;;;;5.20;3.15;;;;;;;;;;4897494;29;20088;-78
2022/08/03 05:14:34;;;;;;;5.07;2.85;;;;;;;;;;4883112;29;20021;-79
2022/08/03 05:17:01;;;;;;;4.93;3.30;;;;;;;;;;4883629;29;20037;-77
2022/08/03 05:19:30;;;;;;;4.50;2.88;;;;;;;;;;4903952;29;20041;-78
2022/08/03 05:21:57;;;;;;;4.50;3.22;;;;;;;;;;4883239;29;20053;-78
2022/08/03 05:24:23;;;;;;;4.10;3.03;;;;;;;;;;4898084;29;20498;-78
2022/08/03 05:26:49;;;;;;;6.18;2.75;;;;;;;;;;4883702;29;20068;-78
2022/08/03 05:29:15;;;;;;;3.88;2.70;;;;;;;;;;4897106;29;20469;-78
2022/08/03 05:31:41;;;;;;;5.25;2.55;;;;;;;;;;4896856;29;20131;-78
2022/08/03 05:34:07;;;;;;;4.72;2.78;;;;;;;;;;4896709;29;20076;-77
2022/08/03 05:36:33;;;;;;;3.50;2.83;;;;;;;;;;4898264;29;20447;-75
2022/08/03 05:39:00;;;;;;;7.05;2.50;;;;;;;;;;4896317;29;20124;-76
2022/08/03 05:41:26;;;;;;;3.50;2.33;;;;;;;;;;4896567;29;20025;-75
2022/08/03 05:43:52;;;;;;;5.72;2.47;;;;;;;;;;4896506;29;20033;-75
2022/08/03 05:46:19;;;;;;;2.95;2.30;;;;;;;;;;4882139;29;20033;-75
2022/08/03 05:48:45;;;;;;;6.25;2.55;;;;;;;;;;4895663;29;20029;-76
2022/08/03 05:51:12;;;;;;;3.08;2.45;;;;;;;;;;4896511;29;20097;-77
2022/08/03 05:53:39;;;;;;;3.22;2.25;;;;;;;;;;4882074;29;20036;-78
2022/08/03 05:56:05;;;;;;;3.65;2.35;;;;;;;;;;4896426;29;20032;-77
2022/08/03 05:58:31;;;;;;;2.83;2.50;;;;;;;;;;4896538;29;20125;-76
2022/08/03 06:00:57;;;;;;;5.05;2.22;;;;;;;;;;4896191;29;20035;-75
2022/08/03 06:03:23;;;;;;;4.35;2.30;;;;;;;;;;4896275;29;20056;-76
2022/08/03 06:05:49;;;;;;;3.72;2.20;;;;;;;;;;4896183;29;20124;-76
2022/08/03 06:08:15;;;;;;;3.67;2.17;;;;;;;;;;4896647;29;20037;-77
2022/08/03 06:10:41;;;;;;;3.72;2.28;;;;;;;;;;4896099;29;20483;-77
2022/08/03 06:13:07;;;;;;;7.18;2.20;;;;;;;;;;4881836;29;20036;-79
2022/08/03 06:15:34;;;;;;;2.63;1.92;;;;;;;;;;4895558;29;20192;-80
2022/08/03 06:18:02;;;;;;;5.43;1.83;;;;;;;;;;4896293;29;20485;-79
2022/08/03 06:20:28;;;;;;;3.45;2.20;;;;;;;;;;4881624;29;20562;-80
2022/08/03 06:22:55;;;;;;;3.08;1.83;;;;;;;;;;4881829;29;20574;-81
2022/08/03 06:25:21;;;;;;;2.90;2.08;;;;;;;;;;4895948;29;20041;-76
2022/08/03 06:27:47;;;;;;;2.10;1.80;;;;;;;;;;4895750;29;20036;-76
2022/08/03 06:30:14;;;;;;;2.10;1.70;;;;;;;;;;4895699;29;20021;-84
2022/08/03 06:32:40;;;;;;;3.17;1.75;;;;;;;;;;4895767;29;20033;-81
2022/08/03 06:35:07;;;;;;;3.25;1.77;;;;;;;;;;4896062;29;20033;-80
2022/08/03 06:37:44;;;;;;;3.40;1.80;;;;;;;;;;4895679;29;20386;-81
2022/08/03 06:40:11;;;;;;;2.83;1.67;;;;;;;;;;4895639;29;20447;-75
2022/08/03 06:42:37;;;;;;;2.92;1.70;;;;;;;;;;4881314;29;20028;-78
2022/08/03 06:45:05;;;;;;;1.98;1.50;;;;;;;;;;4895424;29;20402;-76
2022/08/03 06:47:31;;;;;;;2.05;1.60;;;;;;;;;;4895501;29;20382;-79
2022/08/03 06:49:57;;;;;;;3.47;1.70;;;;;;;;;;4895392;29;20498;-75
2022/08/03 06:52:23;;;;;;;3.20;1.80;;;;;;;;;;4881216;29;20033;-79
2022/08/03 06:54:49;;;;;;;3.40;1.70;;;;;;;;;;4895329;29;20041;-79
2022/08/03 06:57:17;;;;;;;2.58;1.60;;;;;;;;;;4895239;29;20436;-79
2022/08/03 06:59:43;;;;;;;2.92;1.40;;;;;;;;;;4895048;29;20060;-76
2022/08/03 07:02:10;;;;;;;2.42;1.48;;;;;;;;;;4880524;29;20111;-78
2022/08/03 07:04:36;;;;;;;3.55;1.48;;;;;;;;;;4895124;29;20093;-76
2022/08/03 07:07:02;;;;;;;2.63;1.50;;;;;;;;;;4880775;29;20029;-75
2022/08/03 07:09:29;;;;;;;6.53;1.80;;;;;;;;;;4895024;29;20064;-78
2022/08/03 07:11:55;;;;;;;2.70;1.80;;;;;;;;;;4880488;29;20112;-77
2022/08/03 07:14:22;;;;;;;2.60;1.60;;;;;;;;;;4895165;29;20060;-78
2022/08/03 07:16:48;;;;;;;2.90;1.30;;;;;;;;;;4879935;29;20037;-75
2022/08/03 07:19:14;;;;;;;3.33;1.42;;;;;;;;;;4895847;29;20036;-75
2022/08/03 07:21:40;;;;;;;3.03;1.40;;;;;;;;;;4905309;29;20048;-76
2022/08/03 07:24:06;;;;;;;2.45;1.50;;;;;;;;;;4894475;29;20044;-77
2022/08/03 07:26:32;;;;;;;2.47;1.40;;;;;;;;;;4894102;29;20033;-77
2022/08/03 07:29:00;;;;;;;2.88;1.77;;;;;;;;;;4909247;29;20033;-80
2022/08/03 07:31:26;;;;;;;1.88;1.50;;;;;;;;;;4894406;29;20037;-77
2022/08/03 07:33:52;;;;;;;2.53;1.58;;;;;;;;;;4894563;29;20113;-78
2022/08/03 07:36:18;;;;;;;3.45;1.60;;;;;;;;;;4894586;29;20111;-79
2022/08/03 07:38:45;;;;;;;3.92;1.60;;;;;;;;;;4894157;29;20029;-76
2022/08/03 07:41:11;;;;;;;3.03;1.63;;;;;;;;;;4880291;29;20029;-86
2022/08/03 07:43:37;;;;;;;4.13;1.80;;;;;;;;;;4880086;29;20032;-87
2022/08/03 07:46:03;;;;;;;2.58;1.55;;;;;;;;;;4906641;29;20048;-77
2022/08/03 07:48:29;;;;;;;5.00;1.58;;;;;;;;;;4892671;29;20474;-77
2022/08/03 07:50:55;;;;;;;3.60;1.40;;;;;;;;;;4878808;29;20032;-76
2022/08/03 07:53:22;;;;;;;3.63;1.50;;;;;;;;;;4894262;29;20487;-76
2022/08/03 07:55:48;;;;;;;3.38;1.60;;;;;;;;;;4880192;29;20029;-76
2022/08/03 07:58:17;;;;;;;2.13;1.60;;;;;;;;;;4880287;29;20033;-76
2022/08/03 08:00:43;;;;;;;3.72;1.75;;;;;;;;;;4894242;29;20025;-76
2022/08/03 08:03:10;;;;;;;2.38;1.40;;;;;;;;;;4894183;29;20033;-77
2022/08/03 08:05:37;;;;;;;3.50;1.52;;;;;;;;;;4893994;29;20044;-76
2022/08/03 08:08:04;;;;;;;5.65;1.80;;;;;;;;;;4894159;29;20029;-76
2022/08/03 08:10:31;;;;;;;2.67;1.55;;;;;;;;;;4879950;29;20051;-77
2022/08/03 08:12:57;;;;;;;3.30;1.40;;;;;;;;;;4893578;29;20483;-74
2022/08/03 08:15:24;;;;;;;5.80;1.80;;;;;;;;;;4893931;29;20051;-74
2022/08/03 08:17:54;;;;;;;2.88;1.50;;;;;;;;;;4893902;29;20073;-75
2022/08/03 08:20:22;;;;;;;4.82;1.60;;;;;;;;;;4893915;29;20056;-75
2022/08/03 08:22:48;;;;;;;2.20;1.50;;;;;;;;;;4893826;29;20463;-76
2022/08/03 08:25:14;;;;;;;3.15;1.45;;;;;;;;;;4893707;29;20483;-78
2022/08/03 08:27:47;;;;;;;2.88;1.20;;;;;;;;;;4893432;29;20053;-75
2022/08/03 08:30:14;;;;;;;4.20;1.35;;;;;;;;;;4879511;29;20032;-78
2022/08/03 08:32:40;;;;;;;2.30;1.38;;;;;;;;;;4893840;29;20036;-76
2022/08/03 08:35:08;;;;;;;2.30;1.50;;;;;;;;;;4891173;29;20044;-75
2022/08/03 08:37:34;;;;;;;2.50;1.38;;;;;;;;;;4875084;29;20125;-74
2022/08/03 08:40:00;;;;;;;3.25;1.20;;;;;;;;;;4875191;29;20089;-75
2022/08/03 08:42:26;;;;;;;3.88;1.30;;;;;;;;;;4875123;29;20041;-75
2022/08/03 08:44:53;;;;;;;2.17;1.20;;;;;;;;;;4875073;29;20026;-76
2022/08/03 08:47:20;;;;;;;2.28;1.40;;;;;;;;;;4860895;29;20059;-78
2022/08/03 08:49:47;;;;;;;2.25;1.30;;;;;;;;;;4860799;29;20034;-79
2022/08/03 08:52:14;;;;;;;3.10;1.20;;;;;;;;;;4875002;29;20037;-79
2022/08/03 08:54:41;;;;;;;4.25;1.30;;;;;;;;;;4874957;29;20038;-78
2022/08/03 08:57:08;;;;;;;2.63;1.30;;;;;;;;;;4875031;29;20032;-76
2022/08/03 08:59:35;;;;;;;5.03;1.52;;;;;;;;;;4874950;29;20033;-77
2022/08/03 09:02:01;;;;;;;1.67;1.20;;;;;;;;;;4874918;29;20526;-75
2022/08/03 09:04:29;;;;;;;3.10;1.20;;;;;;;;;;4861020;29;20029;-75
2022/08/03 09:06:55;;;;;;;6.72;3.95;;;;;;;;;;4875158;29;20029;-76
2022/08/03 09:09:21;;;;;;;3.33;1.30;;;;;;;;;;4874864;29;20044;-77
2022/08/03 09:11:48;;;;;;;2.15;1.30;;;;;;;;;;4874802;29;20049;-78
2022/08/03 09:14:15;;;;;;;3.05;1.10;;;;;;;;;;4874772;29;20037;-75
2022/08/03 09:17:03;;;;;;;1.88;1.00;;;;;;;;;;4875246;29;20040;-75
2022/08/03 09:19:30;;;;;;;2.00;1.20;;;;;;;;;;4875090;29;20452;-76
2022/08/03 09:22:09;;;;;;;3.40;1.38;;;;;;;;;;4874625;29;20145;-76
2022/08/03 09:24:36;;;;;;;4.20;1.20;;;;;;;;;;4862701;29;20032;-77
2022/08/03 09:27:06;;;;;;;1.95;1.08;;;;;;;;;;4878026;29;20105;-79
2022/08/03 09:29:32;;;;;;;3.25;1.38;;;;;;;;;;4878036;29;20132;-79
2022/08/03 09:32:00;;;;;;;2.05;1.30;;;;;;;;;;4881958;29;20029;-78
2022/08/03 09:34:27;;;;;;;3.13;1.08;;;;;;;;;;4896722;29;20479;-81
2022/08/03 09:36:54;;;;;;;1.25;0.82;;;;;;;;;;4896634;29;20037;-81
2022/08/03 09:39:24;;;;;;;2.42;1.30;;;;;;;;;;4882068;29;20085;-83
2022/08/03 09:42:10;;;;;;;1.75;1.10;;;;;;;;;;4896615;29;20033;-80
2022/08/03 09:44:50;;;;;;;2.90;0.93;;;;;;;;;;4882125;29;20033;-92
2022/08/03 09:47:39;;;;;;;2.60;0.93;;;;;;;;;;4906812;29;20542;-94
2022/08/03 09:50:10;;;;;;;2.38;1.38;;;;;;;;;;4846596;29;20116;-94
2022/08/03 09:52:46;;;;;;;7.45;0.95;;;;;;;;;;4883548;29;20033;-95
2022/08/03 09:55:14;;;;;;;2.25;1.13;;;;;;;;;;4882316;29;20071;-95
2022/08/03 09:57:45;;;;;;;4.03;1.20;;;;;;;;;;4882061;29;20547;-93
2022/08/03 10:00:12;;;;;;;1.77;0.90;;;;;;;;;;4880550;29;20041;-94
2022/08/03 10:02:56;;;;;;;3.72;0.90;;;;;;;;;;4881235;29;20029;-94
2022/08/03 10:05:49;;;;;;;2.17;0.95;;;;;;;;;;4862725;29;20071;-94
2022/08/03 10:08:36;;;;;;;2.13;0.80;;;;;;;;;;4862219;29;20041;-94
2022/08/03 10:11:31;;;;;;;2.25;1.00;;;;;;;;;;4863093;29;20041;-94
2022/08/03 10:14:05;;;;;;;1.52;1.00;;;;;;;;;;4853120;29;20514;-94
2022/08/03 10:16:38;;;;;;;1.65;0.82;;;;;;;;;;4854196;29;20053;-94
2022/08/03 10:19:26;;;;;;;;;;;;;;;;;;;;;
2022/08/03 10:22:05;;;;;;;1.88;1.00;;;;;;;;;;4873216;29;20434;-95
2022/08/03 10:24:37;;;;;;;1.55;1.00;;;;;;;;;;4846370;29;20033;-95
2022/08/03 10:27:13;;;;;;;2.65;0.95;;;;;;;;;;4856673;29;20037;-94
2022/08/03 10:30:09;;;;;;;1.95;0.90;;;;;;;;;;4863722;29;20572;-95
2022/08/03 10:32:48;;;;;;;2.17;1.10;;;;;;;;;;4881087;29;20032;-95
2022/08/03 10:35:24;;;;;;;2.15;0.90;;;;;;;;;;4873863;29;20514;-95
2022/08/03 10:38:01;;;;;;;2.10;1.23;;;;;;;;;;4877808;29;20065;-95
2022/08/03 10:40:45;;;;;;;1.88;0.90;;;;;;;;;;4878504;29;20025;-95
2022/08/03 10:43:21;;;;;;;1.38;0.93;;;;;;;;;;4900581;29;20051;-94
2022/08/03 10:45:48;;;;;;;1.60;0.82;;;;;;;;;;4881565;29;20037;-94
2022/08/03 10:48:14;;;;;;;2.38;0.90;;;;;;;;;;4896514;29;20025;-94
2022/08/03 10:50:44;;;;;;;2.00;1.05;;;;;;;;;;4908565;29;20060;-94
2022/08/03 10:53:10;;;;;;;1.63;1.02;;;;;;;;;;4905526;29;20033;-94
2022/08/03 10:58:48;;;;;;;;;;;;;;;;;;;;;
2022/08/03 11:01:15;;;;;;;6.65;1.42;;;;;;;;;;4883406;29;20037;-96
2022/08/03 11:06:28;;;;;;;1.63;1.10;;;;;;;;;;4910871;23;20057;-94
2022/08/03 11:09:18;;;;;;;2.60;1.35;;;;;;;;;;4896096;29;20029;-93
2022/08/03 11:11:48;;;;;;;2.80;1.40;;;;;;;;;;4896133;29;20417;-93
2022/08/03 11:14:42;;;;;;;1.60;1.30;;;;;;;;;;4895977;29;20497;-95
2022/08/03 11:17:45;;;;;;;2.90;1.20;;;;;;;;;;4894929;29;20049;-94
2022/08/03 11:20:37;;;;;;;1.70;1.20;;;;;;;;;;4888300;29;20029;-94
2022/08/03 11:23:34;;;;;;;2.00;1.40;;;;;;;;;;4881847;29;20124;-96
2022/08/03 11:26:32;;;;;;;1.83;1.20;;;;;;;;;;4883102;29;20042;-96
2022/08/03 11:47:16;;;;;;;1.95;1.30;;;;;;;;;;5177634;23;20144;-93
2022/08/03 11:49:44;;;;;;;1.90;1.30;;;;;;;;;;4895068;29;20025;-91
2022/08/03 11:52:25;;;;;;;2.58;1.30;;;;;;;;;;4896902;29;20055;-95
2022/08/03 11:54:55;;;;;;;1.80;1.13;;;;;;;;;;4894804;29;20064;-89
2022/08/03 11:57:32;;;;;;;3.22;1.30;;;;;;;;;;4894998;29;20045;-91
2022/08/03 11:59:58;;;;;;;3.08;1.40;;;;;;;;;;4894683;29;20029;-91
2022/08/03 12:02:24;;;;;;;3.05;1.58;;;;;;;;;;4904468;29;20033;-91
2022/08/03 12:04:50;;;;;;;2.85;1.40;;;;;;;;;;4894897;29;20483;-91
2022/08/03 12:07:16;;;;;;;2.50;1.42;;;;;;;;;;4888286;29;20044;-91
2022/08/03 12:09:43;;;;;;;1.90;1.38;;;;;;;;;;4879382;29;20161;-90
2022/08/03 12:12:09;;;;;;;2.92;1.38;;;;;;;;;;4894503;29;20041;-90
2022/08/03 12:53:27;;;;;;;3.47;1.20;;;;;;;;;;5201367;23;20056;-91
2022/08/03 12:56:03;;;;;;;1.75;1.20;;;;;;;;;;4918562;29;20040;-92
2022/08/03 12:58:32;;;;;;;2.35;1.50;;;;;;;;;;4902731;29;20056;-90
2022/08/03 13:00:58;;;;;;;2.42;1.40;;;;;;;;;;4919946;29;20565;-89
2022/08/03 13:03:24;;;;;;;2.95;1.30;;;;;;;;;;4920112;29;20111;-88
2022/08/03 13:05:50;;;;;;;2.90;1.13;;;;;;;;;;4920541;29;20068;-89
2022/08/03 13:08:18;;;;;;;5.35;1.27;;;;;;;;;;4924375;29;20028;-89
2022/08/03 13:10:48;;;;;;;3.75;1.17;;;;;;;;;;4911918;29;20052;-86
2022/08/03 13:18:55;;;;;;;2.13;1.25;;;;;;;;;;5899338;23;20062;-95
2022/08/03 14:56:12;;;;;;;4.13;1.30;;;;;;;;;;5298849;23;20045;-91
2022/08/03 14:58:38;;;;;;;5.80;1.38;;;;;;;;;;4865001;29;20478;-89
2022/08/03 15:01:11;;;;;;;2.20;1.20;;;;;;;;;;4866649;29;20100;-95
2022/08/03 15:32:06;;;;;;;;;;;;;;;;;;;;;
2022/08/03 15:37:19;;;;;;;1.55;1.02;;;;;;;;;;5625110;23;20056;-92
2022/08/03 15:39:51;;;;;;;3.45;1.25;;;;;;;;;;4921464;29;20124;-92
2022/08/03 15:42:30;;;;;;;1.75;1.30;;;;;;;;;;4921473;29;20473;-91
2022/08/03 15:44:56;;;;;;;2.45;1.30;;;;;;;;;;4920850;29;20058;-92
2022/08/03 15:47:22;;;;;;;1.70;1.20;;;;;;;;;;4920219;29;20028;-90
2022/08/03 15:49:49;;;;;;;1.98;1.20;;;;;;;;;;4920343;29;20122;-92
2022/08/03 15:52:15;;;;;;;3.08;1.30;;;;;;;;;;4920409;29;20055;-93
2022/08/03 15:54:41;;;;;;;3.80;1.40;;;;;;;;;;4920617;29;20111;-91
2022/08/03 15:57:07;;;;;;;3.10;1.30;;;;;;;;;;4905634;29;20402;-92
2022/08/03 15:59:33;;;;;;;2.88;1.35;;;;;;;;;;4907400;29;20079;-93
2022/08/03 16:02:00;;;;;;;4.55;2.33;;;;;;;;;;4902235;29;20481;-91
2022/08/03 16:04:26;;;;;;;3.70;2.40;;;;;;;;;;4920627;29;20024;-93
2022/08/03 16:06:52;;;;;;;4.70;2.55;;;;;;;;;;4920469;29;20035;-94
2022/08/03 16:09:20;;;;;;;2.45;1.33;;;;;;;;;;4920188;29;20028;-94
2022/08/03 16:11:47;;;;;;;5.55;1.50;;;;;;;;;;4920129;29;20035;-93
2022/08/03 16:14:13;;;;;;;3.55;1.50;;;;;;;;;;4920397;29;20034;-93
2022/08/03 16:16:39;;;;;;;2.50;1.30;;;;;;;;;;4920987;29;20161;-95
2022/08/03 16:19:06;;;;;;;1.80;1.33;;;;;;;;;;4920525;29;20026;-96
2022/08/03 16:21:32;;;;;;;3.03;1.30;;;;;;;;;;4920099;29;20063;-95
2022/08/03 16:24:00;;;;;;;2.03;1.30;;;;;;;;;;4920032;29;20536;-92
2022/08/03 16:26:27;;;;;;;3.38;2.17;;;;;;;;;;4920317;29;20500;-93
2022/08/03 16:28:53;;;;;;;5.40;2.92;;;;;;;;;;4919943;29;20027;-94
2022/08/03 16:31:27;;;;;;;3.45;2.45;;;;;;;;;;4920101;29;20032;-92
2022/08/03 16:33:54;;;;;;;4.40;2.08;;;;;;;;;;4926227;29;20127;-95
2022/08/03 16:36:20;;;;;;;5.07;1.90;;;;;;;;;;4926538;29;20122;-93
2022/08/03 16:38:46;;;;;;;2.92;1.50;;;;;;;;;;4925994;29;20062;-95
2022/08/03 16:41:12;;;;;;;4.13;1.70;;;;;;;;;;4926626;29;20074;-94
2022/08/03 16:43:38;;;;;;;4.22;1.70;;;;;;;;;;4926165;29;20027;-91
2022/08/03 16:46:05;;;;;;;4.00;1.73;;;;;;;;;;4926158;29;20020;-93
2022/08/03 16:48:31;;;;;;;8.18;1.90;;;;;;;;;;4926139;29;20036;-94
2022/08/03 16:50:57;;;;;;;4.53;1.60;;;;;;;;;;4926162;29;20393;-94
2022/08/03 16:53:23;;;;;;;4.13;1.60;;;;;;;;;;4926149;29;20032;-92
2022/08/03 16:55:52;;;;;;;4.13;1.30;;;;;;;;;;4926260;29;20036;-93
2022/08/03 16:58:18;;;;;;;3.33;1.40;;;;;;;;;;4926078;29;20039;-93
2022/08/03 17:00:45;;;;;;;2.45;1.63;;;;;;;;;;4927229;29;20465;-94
2022/08/03 17:03:11;;;;;;;6.78;2.10;;;;;;;;;;4926058;29;20032;-93
2022/08/03 17:05:37;;;;;;;4.47;1.65;;;;;;;;;;4927176;29;20384;-93
2022/08/03 17:08:04;;;;;;;3.05;1.85;;;;;;;;;;4926161;29;20027;-93
2022/08/03 17:10:30;;;;;;;4.07;2.10;;;;;;;;;;4925937;29;20039;-92
2022/08/03 17:12:56;;;;;;;3.90;1.50;;;;;;;;;;4925939;29;20027;-94
2022/08/03 17:15:22;;;;;;;3.63;1.50;;;;;;;;;;4926688;29;20035;-96
2022/08/03 17:17:57;;;;;;;3.15;1.77;;;;;;;;;;4925922;29;20035;-91
2022/08/03 17:23:41;;;;;;;3.05;2.00;;;;;;;;;;4951844;29;20032;-93
2022/08/03 17:26:23;;;;;;;2.30;1.50;;;;;;;;;;4950733;29;20043;-96
2022/08/03 17:32:08;;;;;;;2.10;1.30;;;;;;;;;;4944077;29;20042;-95
2022/08/03 17:34:47;;;;;;;3.30;1.30;;;;;;;;;;4974882;23;20063;-96
2022/08/03 17:37:27;;;;;;;3.13;0.98;;;;;;;;;;4929687;29;20447;-96
2022/08/03 17:40:19;;;;;;;2.67;1.15;;;;;;;;;;4913555;29;20402;-95
2022/08/03 17:42:52;;;;;;;3.42;1.30;;;;;;;;;;4917546;29;20512;-95
2022/08/03 17:45:54;;;;;;;2.13;1.08;;;;;;;;;;4913584;29;20065;-95
2022/08/03 17:48:22;;;;;;;1.67;1.13;;;;;;;;;;4908406;29;20032;-96
2022/08/03 17:50:52;;;;;;;4.70;1.20;;;;;;;;;;4906314;29;20052;-96
2022/08/03 17:53:23;;;;;;;2.70;1.10;;;;;;;;;;4907107;29;20040;-96
2022/08/03 17:59:13;;;;;;;4.68;1.17;;;;;;;;;;4912471;29;20180;-84
2022/08/03 18:04:28;;;;;;;4.72;1.80;;;;;;;;;;4920155;29;20076;-78
2022/08/03 18:06:57;;;;;;;4.15;1.80;;;;;;;;;;4919289;29;20032;-78
2022/08/03 18:09:26;;;;;;;4.95;1.30;;;;;;;;;;4901998;29;20032;-79
2022/08/03 18:11:54;;;;;;;4.20;1.60;;;;;;;;;;4901799;29;20075;-79
2022/08/03 18:14:27;;;;;;;2.42;1.35;;;;;;;;;;4901954;29;20130;-80
2022/08/03 18:17:00;;;;;;;2.38;1.50;;;;;;;;;;4918434;29;20107;-75
2022/08/03 18:19:27;;;;;;;2.72;1.38;;;;;;;;;;4917984;29;20036;-75
2022/08/03 18:21:54;;;;;;;3.40;1.67;;;;;;;;;;4918851;29;20035;-76
2022/08/03 18:24:20;;;;;;;2.33;1.33;;;;;;;;;;4919217;29;20028;-78
2022/08/03 18:26:48;;;;;;;2.80;1.50;;;;;;;;;;4902172;29;20040;-80
2022/08/03 18:29:15;;;;;;;3.55;1.60;;;;;;;;;;4919507;29;20035;-77
2022/08/03 18:31:41;;;;;;;3.13;1.83;;;;;;;;;;4902085;29;20036;-75
2022/08/03 18:34:08;;;;;;;5.07;1.90;;;;;;;;;;4912103;29;20049;-78